sensor_id;sensor_type;location;lat;lon;timestamp;P1;durP1;ratioP1;P2;durP2;ratioP2
42670;SDS011;28283;55.426;37.756;2022-12-24T00:02:18;15.77;;;12.40;;
42670;SDS011;28283;55.426;37.756;2022-12-24T00:12:19;13.52;;;9.68;;
42670;SDS011;28283;55.426;37.756;2022-12-24T00:17:20;12.00;;;9.37;;
42670;SDS011;28283;55.426;37.756;2022-12-24T00:22:20;13.07;;;8.63;;
42670;SDS011;28283;55.426;37.756;2022-12-24T00:27:21;12.52;;;10.68;;
42670;SDS011;28283;55.426;37.756;2022-12-24T00:32:22;10.27;;;8.57;;
42670;SDS011;28283;55.426;37.756;2022-12-24T00:37:22;12.73;;;8.88;;
42670;SDS011;28283;55.426;37.756;2022-12-24T00:42:23;11.27;;;8.30;;
42670;SDS011;28283;55.426;37.756;2022-12-24T00:47:24;12.50;;;9.23;;
42670;SDS011;28283;55.426;37.756;2022-12-24T00:52:24;12.55;;;8.73;;
42670;SDS011;28283;55.426;37.756;2022-12-24T00:57:25;10.43;;;8.48;;
42670;SDS011;28283;55.426;37.756;2022-12-24T01:02:26;10.77;;;8.50;;
42670;SDS011;28283;55.426;37.756;2022-12-24T01:07:26;11.38;;;8.20;;
42670;SDS011;28283;55.426;37.756;2022-12-24T01:12:27;13.97;;;10.60;;
42670;SDS011;28283;55.426;37.756;2022-12-24T01:17:29;14.50;;;9.07;;
42670;SDS011;28283;55.426;37.756;2022-12-24T01:22:31;10.82;;;8.77;;
42670;SDS011;28283;55.426;37.756;2022-12-24T01:27:32;12.90;;;8.23;;
42670;SDS011;28283;55.426;37.756;2022-12-24T01:32:33;14.15;;;9.88;;
42670;SDS011;28283;55.426;37.756;2022-12-24T01:37:34;14.05;;;9.93;;
42670;SDS011;28283;55.426;37.756;2022-12-24T01:42:35;12.98;;;9.50;;
42670;SDS011;28283;55.426;37.756;2022-12-24T01:47:56;11.93;;;9.60;;
42670;SDS011;28283;55.426;37.756;2022-12-24T01:52:57;13.88;;;9.23;;
42670;SDS011;28283;55.426;37.756;2022-12-24T01:57:58;15.02;;;10.75;;
42670;SDS011;28283;55.426;37.756;2022-12-24T02:02:59;14.02;;;11.35;;
42670;SDS011;28283;55.426;37.756;2022-12-24T02:08:00;14.45;;;10.82;;
42670;SDS011;28283;55.426;37.756;2022-12-24T02:13:03;15.27;;;11.02;;
42670;SDS011;28283;55.426;37.756;2022-12-24T02:23:42;17.85;;;12.90;;
42670;SDS011;28283;55.426;37.756;2022-12-24T02:39:23;17.65;;;12.55;;
42670;SDS011;28283;55.426;37.756;2022-12-24T02:44:34;18.27;;;13.18;;
42670;SDS011;28283;55.426;37.756;2022-12-24T02:49:42;17.45;;;11.95;;
42670;SDS011;28283;55.426;37.756;2022-12-24T02:54:44;20.55;;;13.43;;
42670;SDS011;28283;55.426;37.756;2022-12-24T02:59:50;20.30;;;11.87;;
42670;SDS011;28283;55.426;37.756;2022-12-24T03:05:17;20.63;;;13.65;;
42670;SDS011;28283;55.426;37.756;2022-12-24T03:10:42;20.67;;;13.77;;
42670;SDS011;28283;55.426;37.756;2022-12-24T03:15:54;24.10;;;15.88;;
42670;SDS011;28283;55.426;37.756;2022-12-24T03:20:57;20.90;;;15.38;;
42670;SDS011;28283;55.426;37.756;2022-12-24T03:26:05;22.17;;;13.50;;
42670;SDS011;28283;55.426;37.756;2022-12-24T03:31:08;20.45;;;13.10;;
42670;SDS011;28283;55.426;37.756;2022-12-24T03:41:10;24.05;;;14.40;;
42670;SDS011;28283;55.426;37.756;2022-12-24T03:46:11;25.92;;;17.17;;
42670;SDS011;28283;55.426;37.756;2022-12-24T03:51:19;22.77;;;14.95;;
42670;SDS011;28283;55.426;37.756;2022-12-24T03:56:21;23.42;;;14.55;;
42670;SDS011;28283;55.426;37.756;2022-12-24T04:01:22;18.92;;;12.35;;
42670;SDS011;28283;55.426;37.756;2022-12-24T04:06:23;27.75;;;14.63;;
42670;SDS011;28283;55.426;37.756;2022-12-24T04:11:24;20.67;;;13.30;;
42670;SDS011;28283;55.426;37.756;2022-12-24T04:16:24;18.43;;;13.17;;
42670;SDS011;28283;55.426;37.756;2022-12-24T04:21:25;21.70;;;12.90;;
42670;SDS011;28283;55.426;37.756;2022-12-24T04:26:26;20.58;;;13.63;;
42670;SDS011;28283;55.426;37.756;2022-12-24T04:31:26;19.50;;;12.55;;
42670;SDS011;28283;55.426;37.756;2022-12-24T04:36:27;19.07;;;12.17;;
42670;SDS011;28283;55.426;37.756;2022-12-24T04:41:29;19.95;;;13.73;;
42670;SDS011;28283;55.426;37.756;2022-12-24T04:46:29;22.33;;;12.80;;
42670;SDS011;28283;55.426;37.756;2022-12-24T04:51:30;24.67;;;14.40;;
42670;SDS011;28283;55.426;37.756;2022-12-24T04:56:31;20.60;;;12.88;;
42670;SDS011;28283;55.426;37.756;2022-12-24T05:01:32;24.35;;;14.88;;
42670;SDS011;28283;55.426;37.756;2022-12-24T05:06:32;23.17;;;14.02;;
42670;SDS011;28283;55.426;37.756;2022-12-24T05:11:33;20.73;;;12.45;;
42670;SDS011;28283;55.426;37.756;2022-12-24T05:16:34;21.65;;;14.93;;
42670;SDS011;28283;55.426;37.756;2022-12-24T05:21:35;24.83;;;15.52;;
42670;SDS011;28283;55.426;37.756;2022-12-24T05:26:43;22.70;;;15.30;;
42670;SDS011;28283;55.426;37.756;2022-12-24T05:31:48;27.13;;;17.30;;
42670;SDS011;28283;55.426;37.756;2022-12-24T05:36:49;23.83;;;15.35;;
42670;SDS011;28283;55.426;37.756;2022-12-24T05:41:50;25.83;;;17.50;;
42670;SDS011;28283;55.426;37.756;2022-12-24T05:46:50;25.73;;;16.97;;
42670;SDS011;28283;55.426;37.756;2022-12-24T05:51:51;34.33;;;18.35;;
42670;SDS011;28283;55.426;37.756;2022-12-24T05:56:52;29.87;;;19.23;;
42670;SDS011;28283;55.426;37.756;2022-12-24T06:01:52;29.83;;;17.63;;
42670;SDS011;28283;55.426;37.756;2022-12-24T06:06:53;28.95;;;16.80;;
42670;SDS011;28283;55.426;37.756;2022-12-24T06:11:54;29.97;;;17.60;;
42670;SDS011;28283;55.426;37.756;2022-12-24T06:16:54;31.35;;;17.95;;
42670;SDS011;28283;55.426;37.756;2022-12-24T06:21:55;31.97;;;17.80;;
42670;SDS011;28283;55.426;37.756;2022-12-24T06:26:56;27.77;;;17.50;;
42670;SDS011;28283;55.426;37.756;2022-12-24T06:31:56;26.20;;;14.98;;
42670;SDS011;28283;55.426;37.756;2022-12-24T06:36:57;27.33;;;16.07;;
42670;SDS011;28283;55.426;37.756;2022-12-24T06:41:57;28.65;;;16.58;;
42670;SDS011;28283;55.426;37.756;2022-12-24T06:46:58;27.00;;;15.15;;
42670;SDS011;28283;55.426;37.756;2022-12-24T06:51:59;22.40;;;13.90;;
42670;SDS011;28283;55.426;37.756;2022-12-24T06:56:59;25.43;;;14.13;;
42670;SDS011;28283;55.426;37.756;2022-12-24T07:02:00;22.77;;;14.33;;
42670;SDS011;28283;55.426;37.756;2022-12-24T07:07:01;18.55;;;11.90;;
42670;SDS011;28283;55.426;37.756;2022-12-24T07:12:01;21.63;;;12.63;;
42670;SDS011;28283;55.426;37.756;2022-12-24T07:17:02;23.52;;;15.25;;
42670;SDS011;28283;55.426;37.756;2022-12-24T07:22:02;24.30;;;14.73;;
42670;SDS011;28283;55.426;37.756;2022-12-24T07:27:03;24.00;;;15.03;;
42670;SDS011;28283;55.426;37.756;2022-12-24T07:32:04;21.73;;;12.45;;
42670;SDS011;28283;55.426;37.756;2022-12-24T07:37:23;27.80;;;14.93;;
42670;SDS011;28283;55.426;37.756;2022-12-24T07:42:24;25.17;;;15.00;;
42670;SDS011;28283;55.426;37.756;2022-12-24T07:47:24;21.38;;;14.95;;
42670;SDS011;28283;55.426;37.756;2022-12-24T07:52:25;21.52;;;14.05;;
42670;SDS011;28283;55.426;37.756;2022-12-24T07:57:26;19.57;;;13.57;;
42670;SDS011;28283;55.426;37.756;2022-12-24T08:02:26;21.80;;;13.50;;
42670;SDS011;28283;55.426;37.756;2022-12-24T08:07:27;21.35;;;14.23;;
42670;SDS011;28283;55.426;37.756;2022-12-24T08:12:28;23.73;;;16.20;;
42670;SDS011;28283;55.426;37.756;2022-12-24T08:17:28;25.83;;;15.00;;
42670;SDS011;28283;55.426;37.756;2022-12-24T08:22:35;24.37;;;14.77;;
42670;SDS011;28283;55.426;37.756;2022-12-24T08:27:36;21.13;;;13.55;;
42670;SDS011;28283;55.426;37.756;2022-12-24T08:32:37;25.25;;;15.13;;
42670;SDS011;28283;55.426;37.756;2022-12-24T08:37:37;20.40;;;13.02;;
42670;SDS011;28283;55.426;37.756;2022-12-24T08:42:38;23.93;;;15.00;;
42670;SDS011;28283;55.426;37.756;2022-12-24T08:47:39;22.67;;;14.20;;
42670;SDS011;28283;55.426;37.756;2022-12-24T08:52:39;25.52;;;15.23;;
42670;SDS011;28283;55.426;37.756;2022-12-24T08:57:40;25.20;;;15.07;;
42670;SDS011;28283;55.426;37.756;2022-12-24T09:02:41;19.70;;;13.97;;
42670;SDS011;28283;55.426;37.756;2022-12-24T09:07:42;23.67;;;15.40;;
42670;SDS011;28283;55.426;37.756;2022-12-24T09:12:42;20.50;;;13.05;;
42670;SDS011;28283;55.426;37.756;2022-12-24T09:17:43;24.27;;;17.07;;
42670;SDS011;28283;55.426;37.756;2022-12-24T09:22:44;22.63;;;13.82;;
42670;SDS011;28283;55.426;37.756;2022-12-24T09:27:44;25.48;;;16.70;;
42670;SDS011;28283;55.426;37.756;2022-12-24T09:32:45;21.83;;;14.67;;
42670;SDS011;28283;55.426;37.756;2022-12-24T09:37:45;24.97;;;16.17;;
42670;SDS011;28283;55.426;37.756;2022-12-24T09:48:14;21.63;;;13.48;;
42670;SDS011;28283;55.426;37.756;2022-12-24T09:53:21;22.23;;;14.38;;
42670;SDS011;28283;55.426;37.756;2022-12-24T09:58:31;23.35;;;14.90;;
42670;SDS011;28283;55.426;37.756;2022-12-24T10:03:35;23.95;;;16.08;;
42670;SDS011;28283;55.426;37.756;2022-12-24T10:14:21;23.38;;;15.02;;
42670;SDS011;28283;55.426;37.756;2022-12-24T10:19:42;19.27;;;13.10;;
42670;SDS011;28283;55.426;37.756;2022-12-24T10:24:56;22.00;;;15.65;;
42670;SDS011;28283;55.426;37.756;2022-12-24T10:30:05;21.25;;;14.50;;
42670;SDS011;28283;55.426;37.756;2022-12-24T10:40:22;17.47;;;12.07;;
42670;SDS011;28283;55.426;37.756;2022-12-24T10:45:36;15.82;;;11.32;;
42670;SDS011;28283;55.426;37.756;2022-12-24T10:50:42;18.45;;;12.40;;
42670;SDS011;28283;55.426;37.756;2022-12-24T10:56:05;14.35;;;10.32;;
42670;SDS011;28283;55.426;37.756;2022-12-24T11:01:08;15.15;;;10.70;;
42670;SDS011;28283;55.426;37.756;2022-12-24T11:06:13;12.70;;;9.03;;
42670;SDS011;28283;55.426;37.756;2022-12-24T11:11:18;13.10;;;9.00;;
42670;SDS011;28283;55.426;37.756;2022-12-24T11:16:21;11.30;;;8.23;;
42670;SDS011;28283;55.426;37.756;2022-12-24T11:21:25;12.85;;;9.50;;
42670;SDS011;28283;55.426;37.756;2022-12-24T11:26:33;15.93;;;11.20;;
42670;SDS011;28283;55.426;37.756;2022-12-24T11:31:34;15.68;;;11.65;;
42670;SDS011;28283;55.426;37.756;2022-12-24T11:36:36;12.40;;;9.85;;
42670;SDS011;28283;55.426;37.756;2022-12-24T11:41:37;13.32;;;9.52;;
42670;SDS011;28283;55.426;37.756;2022-12-24T11:46:39;14.55;;;10.90;;
42670;SDS011;28283;55.426;37.756;2022-12-24T11:52:10;11.90;;;8.55;;
42670;SDS011;28283;55.426;37.756;2022-12-24T11:57:10;16.48;;;11.38;;
42670;SDS011;28283;55.426;37.756;2022-12-24T12:02:24;14.63;;;8.63;;
42670;SDS011;28283;55.426;37.756;2022-12-24T12:07:29;12.20;;;10.77;;
42670;SDS011;28283;55.426;37.756;2022-12-24T12:12:35;13.25;;;10.48;;
42670;SDS011;28283;55.426;37.756;2022-12-24T12:17:45;12.10;;;8.88;;
42670;SDS011;28283;55.426;37.756;2022-12-24T12:22:57;10.65;;;8.05;;
42670;SDS011;28283;55.426;37.756;2022-12-24T12:28:02;11.10;;;8.43;;
42670;SDS011;28283;55.426;37.756;2022-12-24T12:38:51;9.20;;;8.15;;
42670;SDS011;28283;55.426;37.756;2022-12-24T12:44:11;9.13;;;7.65;;
42670;SDS011;28283;55.426;37.756;2022-12-24T12:49:52;9.88;;;8.43;;
42670;SDS011;28283;55.426;37.756;2022-12-24T13:00:21;11.60;;;8.80;;
42670;SDS011;28283;55.426;37.756;2022-12-24T13:05:46;13.00;;;8.15;;
42670;SDS011;28283;55.426;37.756;2022-12-24T13:21:21;10.45;;;8.00;;
42670;SDS011;28283;55.426;37.756;2022-12-24T13:26:24;11.40;;;10.20;;
42670;SDS011;28283;55.426;37.756;2022-12-24T13:31:26;10.38;;;8.20;;
42670;SDS011;28283;55.426;37.756;2022-12-24T13:42:02;11.32;;;9.38;;
42670;SDS011;28283;55.426;37.756;2022-12-24T14:02:46;14.57;;;10.20;;
42670;SDS011;28283;55.426;37.756;2022-12-24T14:07:53;12.18;;;10.38;;
42670;SDS011;28283;55.426;37.756;2022-12-24T14:12:56;13.30;;;10.23;;
42670;SDS011;28283;55.426;37.756;2022-12-24T14:17:57;9.45;;;8.00;;
42670;SDS011;28283;55.426;37.756;2022-12-24T14:22:57;11.30;;;9.55;;
42670;SDS011;28283;55.426;37.756;2022-12-24T14:28:04;11.27;;;9.05;;
42670;SDS011;28283;55.426;37.756;2022-12-24T14:33:26;10.65;;;9.10;;
42670;SDS011;28283;55.426;37.756;2022-12-24T14:38:31;9.50;;;6.32;;
42670;SDS011;28283;55.426;37.756;2022-12-24T14:59:19;6.70;;;5.40;;
42670;SDS011;28283;55.426;37.756;2022-12-24T15:04:19;7.20;;;5.35;;
42670;SDS011;28283;55.426;37.756;2022-12-24T15:09:27;2.78;;;2.40;;
42670;SDS011;28283;55.426;37.756;2022-12-24T15:14:31;4.25;;;2.92;;
42670;SDS011;28283;55.426;37.756;2022-12-24T15:19:41;7.30;;;5.53;;
42670;SDS011;28283;55.426;37.756;2022-12-24T15:24:45;9.70;;;6.63;;
42670;SDS011;28283;55.426;37.756;2022-12-24T15:29:48;10.15;;;5.35;;
42670;SDS011;28283;55.426;37.756;2022-12-24T15:34:52;14.48;;;10.43;;
42670;SDS011;28283;55.426;37.756;2022-12-24T15:39:57;9.85;;;4.28;;
42670;SDS011;28283;55.426;37.756;2022-12-24T15:45:16;5.80;;;4.85;;
42670;SDS011;28283;55.426;37.756;2022-12-24T15:55:37;9.20;;;6.50;;
42670;SDS011;28283;55.426;37.756;2022-12-24T16:00:40;10.63;;;7.03;;
42670;SDS011;28283;55.426;37.756;2022-12-24T16:05:41;10.70;;;6.22;;
42670;SDS011;28283;55.426;37.756;2022-12-24T16:15:54;7.60;;;5.22;;
42670;SDS011;28283;55.426;37.756;2022-12-24T16:21:22;10.80;;;6.88;;
42670;SDS011;28283;55.426;37.756;2022-12-24T16:26:27;17.25;;;11.02;;
42670;SDS011;28283;55.426;37.756;2022-12-24T16:31:49;12.32;;;7.20;;
42670;SDS011;28283;55.426;37.756;2022-12-24T16:36:50;8.48;;;4.82;;
42670;SDS011;28283;55.426;37.756;2022-12-24T16:41:51;5.57;;;4.05;;
42670;SDS011;28283;55.426;37.756;2022-12-24T16:47:12;11.25;;;6.55;;
42670;SDS011;28283;55.426;37.756;2022-12-24T16:52:28;10.90;;;7.00;;
42670;SDS011;28283;55.426;37.756;2022-12-24T16:57:32;9.55;;;5.88;;
42670;SDS011;28283;55.426;37.756;2022-12-24T17:02:33;10.18;;;8.48;;
42670;SDS011;28283;55.426;37.756;2022-12-24T17:07:34;15.55;;;10.02;;
42670;SDS011;28283;55.426;37.756;2022-12-24T17:12:34;14.90;;;10.80;;
42670;SDS011;28283;55.426;37.756;2022-12-24T17:17:35;8.90;;;6.22;;
42670;SDS011;28283;55.426;37.756;2022-12-24T17:22:36;10.75;;;6.65;;
42670;SDS011;28283;55.426;37.756;2022-12-24T17:32:38;9.07;;;4.68;;
42670;SDS011;28283;55.426;37.756;2022-12-24T17:37:39;7.00;;;5.87;;
42670;SDS011;28283;55.426;37.756;2022-12-24T17:42:39;9.32;;;4.95;;
42670;SDS011;28283;55.426;37.756;2022-12-24T17:47:40;9.68;;;6.75;;
42670;SDS011;28283;55.426;37.756;2022-12-24T17:52:41;6.87;;;4.70;;
42670;SDS011;28283;55.426;37.756;2022-12-24T17:57:41;6.18;;;5.50;;
42670;SDS011;28283;55.426;37.756;2022-12-24T18:02:42;10.27;;;5.05;;
42670;SDS011;28283;55.426;37.756;2022-12-24T18:07:43;7.20;;;4.45;;
42670;SDS011;28283;55.426;37.756;2022-12-24T18:12:43;4.90;;;3.90;;
42670;SDS011;28283;55.426;37.756;2022-12-24T18:17:48;10.85;;;6.13;;
42670;SDS011;28283;55.426;37.756;2022-12-24T18:22:52;6.15;;;4.85;;
42670;SDS011;28283;55.426;37.756;2022-12-24T18:27:53;12.23;;;8.73;;
42670;SDS011;28283;55.426;37.756;2022-12-24T18:32:54;12.93;;;9.63;;
42670;SDS011;28283;55.426;37.756;2022-12-24T18:37:55;10.75;;;7.32;;
42670;SDS011;28283;55.426;37.756;2022-12-24T18:42:55;9.35;;;5.75;;
42670;SDS011;28283;55.426;37.756;2022-12-24T18:47:56;7.07;;;4.50;;
42670;SDS011;28283;55.426;37.756;2022-12-24T18:52:58;8.23;;;6.07;;
42670;SDS011;28283;55.426;37.756;2022-12-24T18:57:59;4.90;;;3.13;;
42670;SDS011;28283;55.426;37.756;2022-12-24T19:03:00;4.63;;;3.53;;
42670;SDS011;28283;55.426;37.756;2022-12-24T19:08:03;6.93;;;4.15;;
42670;SDS011;28283;55.426;37.756;2022-12-24T19:18:05;6.20;;;2.75;;
42670;SDS011;28283;55.426;37.756;2022-12-24T19:23:06;5.18;;;3.63;;
42670;SDS011;28283;55.426;37.756;2022-12-24T19:28:07;3.90;;;2.88;;
42670;SDS011;28283;55.426;37.756;2022-12-24T19:33:09;5.45;;;4.70;;
42670;SDS011;28283;55.426;37.756;2022-12-24T19:38:10;6.72;;;3.95;;
42670;SDS011;28283;55.426;37.756;2022-12-24T19:43:10;6.97;;;5.67;;
42670;SDS011;28283;55.426;37.756;2022-12-24T19:48:11;7.38;;;5.07;;
42670;SDS011;28283;55.426;37.756;2022-12-24T19:53:14;5.28;;;3.70;;
42670;SDS011;28283;55.426;37.756;2022-12-24T19:58:14;2.00;;;1.77;;
42670;SDS011;28283;55.426;37.756;2022-12-24T20:03:15;3.43;;;3.13;;
42670;SDS011;28283;55.426;37.756;2022-12-24T20:08:16;7.97;;;4.72;;
42670;SDS011;28283;55.426;37.756;2022-12-24T20:13:16;3.63;;;2.85;;
42670;SDS011;28283;55.426;37.756;2022-12-24T20:18:17;5.35;;;3.55;;
42670;SDS011;28283;55.426;37.756;2022-12-24T20:23:18;3.57;;;3.27;;
42670;SDS011;28283;55.426;37.756;2022-12-24T20:28:18;3.10;;;1.75;;
42670;SDS011;28283;55.426;37.756;2022-12-24T20:33:19;2.37;;;1.80;;
42670;SDS011;28283;55.426;37.756;2022-12-24T20:38:20;3.92;;;3.13;;
42670;SDS011;28283;55.426;37.756;2022-12-24T20:43:21;4.75;;;3.08;;
42670;SDS011;28283;55.426;37.756;2022-12-24T20:48:22;4.28;;;2.92;;
42670;SDS011;28283;55.426;37.756;2022-12-24T20:53:23;3.45;;;2.90;;
42670;SDS011;28283;55.426;37.756;2022-12-24T20:58:24;4.80;;;3.85;;
42670;SDS011;28283;55.426;37.756;2022-12-24T21:03:25;3.05;;;2.78;;
42670;SDS011;28283;55.426;37.756;2022-12-24T21:08:26;4.67;;;3.03;;
42670;SDS011;28283;55.426;37.756;2022-12-24T21:13:26;4.93;;;3.07;;
42670;SDS011;28283;55.426;37.756;2022-12-24T21:18:27;4.50;;;3.55;;
42670;SDS011;28283;55.426;37.756;2022-12-24T21:23:28;5.10;;;2.22;;
42670;SDS011;28283;55.426;37.756;2022-12-24T21:28:29;7.33;;;5.03;;
42670;SDS011;28283;55.426;37.756;2022-12-24T21:33:30;1.70;;;1.52;;
42670;SDS011;28283;55.426;37.756;2022-12-24T21:38:32;8.82;;;4.78;;
42670;SDS011;28283;55.426;37.756;2022-12-24T21:43:34;6.25;;;3.53;;
42670;SDS011;28283;55.426;37.756;2022-12-24T21:48:35;4.35;;;2.70;;
42670;SDS011;28283;55.426;37.756;2022-12-24T21:53:55;8.38;;;4.70;;
42670;SDS011;28283;55.426;37.756;2022-12-24T21:59:14;7.05;;;3.50;;
42670;SDS011;28283;55.426;37.756;2022-12-24T22:04:15;5.57;;;3.33;;
42670;SDS011;28283;55.426;37.756;2022-12-24T22:09:16;2.78;;;2.45;;
42670;SDS011;28283;55.426;37.756;2022-12-24T22:14:35;6.32;;;4.65;;
42670;SDS011;28283;55.426;37.756;2022-12-24T22:19:36;6.65;;;4.85;;
42670;SDS011;28283;55.426;37.756;2022-12-24T22:24:37;6.93;;;4.15;;
42670;SDS011;28283;55.426;37.756;2022-12-24T22:29:37;8.70;;;4.10;;
42670;SDS011;28283;55.426;37.756;2022-12-24T22:34:38;5.30;;;2.93;;
42670;SDS011;28283;55.426;37.756;2022-12-24T22:39:38;7.10;;;4.03;;
42670;SDS011;28283;55.426;37.756;2022-12-24T22:44:39;7.25;;;3.75;;
42670;SDS011;28283;55.426;37.756;2022-12-24T22:49:40;6.00;;;4.57;;
42670;SDS011;28283;55.426;37.756;2022-12-24T22:54:40;6.03;;;4.57;;
42670;SDS011;28283;55.426;37.756;2022-12-24T22:59:41;7.40;;;5.57;;
42670;SDS011;28283;55.426;37.756;2022-12-24T23:04:42;2.40;;;2.13;;
42670;SDS011;28283;55.426;37.756;2022-12-24T23:09:43;4.72;;;2.92;;
42670;SDS011;28283;55.426;37.756;2022-12-24T23:14:43;9.02;;;5.93;;
42670;SDS011;28283;55.426;37.756;2022-12-24T23:19:56;9.88;;;5.82;;
42670;SDS011;28283;55.426;37.756;2022-12-24T23:24:57;6.30;;;4.15;;
42670;SDS011;28283;55.426;37.756;2022-12-24T23:29:57;8.98;;;4.78;;
42670;SDS011;28283;55.426;37.756;2022-12-24T23:34:58;6.78;;;3.10;;
42670;SDS011;28283;55.426;37.756;2022-12-24T23:39:59;3.05;;;2.03;;
42670;SDS011;28283;55.426;37.756;2022-12-24T23:44:59;7.00;;;4.10;;
42670;SDS011;28283;55.426;37.756;2022-12-24T23:50:00;9.00;;;5.80;;
42670;SDS011;28283;55.426;37.756;2022-12-24T23:55:01;6.38;;;4.82;;
